sensor_id;sensor_type;location;lat;lon;timestamp;temperature;humidity
11067;DHT22;29763;50.904;5.530;2022-08-19T00:00:37;17.70;99.90
11067;DHT22;29763;50.904;5.530;2022-08-19T00:03:04;17.70;99.90
11067;DHT22;29763;50.904;5.530;2022-08-19T00:05:30;17.60;99.90
11067;DHT22;29763;50.904;5.530;2022-08-19T00:07:57;17.60;99.90
11067;DHT22;29763;50.904;5.530;2022-08-19T00:10:23;17.60;99.90
11067;DHT22;29763;50.904;5.530;2022-08-19T00:12:50;17.60;99.90
11067;DHT22;29763;50.904;5.530;2022-08-19T00:15:18;17.60;99.90
11067;DHT22;29763;50.904;5.530;2022-08-19T00:17:45;17.50;99.90
11067;DHT22;29763;50.904;5.530;2022-08-19T00:20:13;17.50;99.90
11067;DHT22;29763;50.904;5.530;2022-08-19T00:22:42;17.50;99.90
11067;DHT22;29763;50.904;5.530;2022-08-19T00:25:08;17.50;99.90
11067;DHT22;29763;50.904;5.530;2022-08-19T00:27:34;17.50;99.90
11067;DHT22;29763;50.904;5.530;2022-08-19T00:30:00;17.50;99.90
11067;DHT22;29763;50.904;5.530;2022-08-19T00:32:30;17.50;99.90
11067;DHT22;29763;50.904;5.530;2022-08-19T00:34:55;17.40;99.90
11067;DHT22;29763;50.904;5.530;2022-08-19T00:37:23;17.30;99.90
11067;DHT22;29763;50.904;5.530;2022-08-19T00:39:52;17.40;99.90
11067;DHT22;29763;50.904;5.530;2022-08-19T00:42:20;17.40;99.90
11067;DHT22;29763;50.904;5.530;2022-08-19T00:44:46;17.30;99.90
11067;DHT22;29763;50.904;5.530;2022-08-19T00:47:12;17.30;99.90
11067;DHT22;29763;50.904;5.530;2022-08-19T00:49:43;17.30;99.90
11067;DHT22;29763;50.904;5.530;2022-08-19T00:52:16;17.30;99.90
11067;DHT22;29763;50.904;5.530;2022-08-19T00:54:43;17.20;99.90
11067;DHT22;29763;50.904;5.530;2022-08-19T00:57:12;17.20;99.90
11067;DHT22;29763;50.904;5.530;2022-08-19T00:59:40;17.20;99.90
11067;DHT22;29763;50.904;5.530;2022-08-19T01:02:07;17.20;99.90
11067;DHT22;29763;50.904;5.530;2022-08-19T01:04:33;17.20;99.90
11067;DHT22;29763;50.904;5.530;2022-08-19T01:06:59;17.10;99.90
11067;DHT22;29763;50.904;5.530;2022-08-19T01:09:25;17.00;99.90
11067;DHT22;29763;50.904;5.530;2022-08-19T01:11:51;17.00;99.90
11067;DHT22;29763;50.904;5.530;2022-08-19T01:14:17;17.00;99.90
11067;DHT22;29763;50.904;5.530;2022-08-19T01:16:44;17.00;99.90
11067;DHT22;29763;50.904;5.530;2022-08-19T01:19:34;17.00;99.90
11067;DHT22;29763;50.904;5.530;2022-08-19T01:22:11;16.90;99.90
11067;DHT22;29763;50.904;5.530;2022-08-19T01:24:38;16.90;99.90
11067;DHT22;29763;50.904;5.530;2022-08-19T01:27:05;16.80;99.90
11067;DHT22;29763;50.904;5.530;2022-08-19T01:29:31;16.90;99.90
11067;DHT22;29763;50.904;5.530;2022-08-19T01:31:57;16.80;99.90
11067;DHT22;29763;50.904;5.530;2022-08-19T01:34:23;16.90;99.90
11067;DHT22;29763;50.904;5.530;2022-08-19T01:36:49;16.80;99.90
11067;DHT22;29763;50.904;5.530;2022-08-19T01:39:22;16.80;99.90
11067;DHT22;29763;50.904;5.530;2022-08-19T01:41:49;16.70;99.90
11067;DHT22;29763;50.904;5.530;2022-08-19T01:44:15;16.60;99.90
11067;DHT22;29763;50.904;5.530;2022-08-19T01:46:42;16.50;99.90
11067;DHT22;29763;50.904;5.530;2022-08-19T01:49:09;16.50;99.90
11067;DHT22;29763;50.904;5.530;2022-08-19T01:51:35;16.40;99.90
11067;DHT22;29763;50.904;5.530;2022-08-19T01:54:01;16.40;99.90
11067;DHT22;29763;50.904;5.530;2022-08-19T01:56:27;16.40;99.90
11067;DHT22;29763;50.904;5.530;2022-08-19T01:58:57;16.40;99.90
11067;DHT22;29763;50.904;5.530;2022-08-19T02:01:26;16.40;99.90
11067;DHT22;29763;50.904;5.530;2022-08-19T02:03:52;16.50;99.90
11067;DHT22;29763;50.904;5.530;2022-08-19T02:06:18;16.50;99.90
11067;DHT22;29763;50.904;5.530;2022-08-19T02:08:44;16.50;99.90
11067;DHT22;29763;50.904;5.530;2022-08-19T02:11:19;16.50;99.90
11067;DHT22;29763;50.904;5.530;2022-08-19T02:13:46;16.50;99.90
11067;DHT22;29763;50.904;5.530;2022-08-19T02:16:12;16.40;99.90
11067;DHT22;29763;50.904;5.530;2022-08-19T02:18:37;16.40;99.90
11067;DHT22;29763;50.904;5.530;2022-08-19T02:21:03;16.40;99.90
11067;DHT22;29763;50.904;5.530;2022-08-19T02:23:29;16.40;99.90
11067;DHT22;29763;50.904;5.530;2022-08-19T02:25:56;16.40;99.90
11067;DHT22;29763;50.904;5.530;2022-08-19T02:28:22;16.40;99.90
11067;DHT22;29763;50.904;5.530;2022-08-19T02:30:48;16.40;99.90
11067;DHT22;29763;50.904;5.530;2022-08-19T02:33:13;16.30;99.90
11067;DHT22;29763;50.904;5.530;2022-08-19T02:35:46;16.30;99.90
11067;DHT22;29763;50.904;5.530;2022-08-19T02:38:13;16.30;99.90
11067;DHT22;29763;50.904;5.530;2022-08-19T02:40:59;16.20;99.90
11067;DHT22;29763;50.904;5.530;2022-08-19T02:43:25;16.20;99.90
11067;DHT22;29763;50.904;5.530;2022-08-19T02:45:52;16.20;99.90
11067;DHT22;29763;50.904;5.530;2022-08-19T02:48:20;16.20;99.90
11067;DHT22;29763;50.904;5.530;2022-08-19T02:50:47;16.20;99.90
11067;DHT22;29763;50.904;5.530;2022-08-19T02:53:18;16.10;99.90
11067;DHT22;29763;50.904;5.530;2022-08-19T02:55:46;16.20;99.90
11067;DHT22;29763;50.904;5.530;2022-08-19T02:58:13;16.10;99.90
11067;DHT22;29763;50.904;5.530;2022-08-19T03:00:48;16.10;99.90
11067;DHT22;29763;50.904;5.530;2022-08-19T03:03:15;16.10;99.90
11067;DHT22;29763;50.904;5.530;2022-08-19T03:05:41;16.10;99.90
11067;DHT22;29763;50.904;5.530;2022-08-19T03:08:08;16.10;99.90
11067;DHT22;29763;50.904;5.530;2022-08-19T03:10:42;16.00;99.90
11067;DHT22;29763;50.904;5.530;2022-08-19T03:13:14;16.00;99.90
11067;DHT22;29763;50.904;5.530;2022-08-19T03:15:42;16.00;99.90
11067;DHT22;29763;50.904;5.530;2022-08-19T03:18:08;16.00;99.90
11067;DHT22;29763;50.904;5.530;2022-08-19T03:20:43;16.00;99.90
11067;DHT22;29763;50.904;5.530;2022-08-19T03:23:10;16.00;99.90
11067;DHT22;29763;50.904;5.530;2022-08-19T03:25:38;15.90;99.90
11067;DHT22;29763;50.904;5.530;2022-08-19T03:28:06;15.90;99.90
11067;DHT22;29763;50.904;5.530;2022-08-19T03:30:33;15.90;99.90
11067;DHT22;29763;50.904;5.530;2022-08-19T03:33:01;15.80;99.90
11067;DHT22;29763;50.904;5.530;2022-08-19T03:35:27;15.90;99.90
11067;DHT22;29763;50.904;5.530;2022-08-19T03:37:53;15.80;99.90
11067;DHT22;29763;50.904;5.530;2022-08-19T03:40:19;15.80;99.90
11067;DHT22;29763;50.904;5.530;2022-08-19T03:42:45;15.80;99.90
11067;DHT22;29763;50.904;5.530;2022-08-19T03:45:11;15.70;99.90
11067;DHT22;29763;50.904;5.530;2022-08-19T03:47:37;15.80;99.90
11067;DHT22;29763;50.904;5.530;2022-08-19T03:50:04;15.70;99.90
11067;DHT22;29763;50.904;5.530;2022-08-19T03:52:30;15.80;99.90
11067;DHT22;29763;50.904;5.530;2022-08-19T03:54:56;15.70;99.90
11067;DHT22;29763;50.904;5.530;2022-08-19T03:57:22;15.70;99.90
11067;DHT22;29763;50.904;5.530;2022-08-19T03:59:47;15.70;99.90
11067;DHT22;29763;50.904;5.530;2022-08-19T04:02:13;15.70;99.90
11067;DHT22;29763;50.904;5.530;2022-08-19T04:04:41;15.70;99.90
11067;DHT22;29763;50.904;5.530;2022-08-19T04:07:09;15.70;99.90
11067;DHT22;29763;50.904;5.530;2022-08-19T04:09:35;15.60;99.90
11067;DHT22;29763;50.904;5.530;2022-08-19T04:12:03;15.60;99.90
11067;DHT22;29763;50.904;5.530;2022-08-19T04:14:30;15.60;99.90
11067;DHT22;29763;50.904;5.530;2022-08-19T04:16:58;15.60;99.90
11067;DHT22;29763;50.904;5.530;2022-08-19T04:19:24;15.60;99.90
11067;DHT22;29763;50.904;5.530;2022-08-19T04:21:52;15.50;99.90
11067;DHT22;29763;50.904;5.530;2022-08-19T04:24:19;15.50;99.90
11067;DHT22;29763;50.904;5.530;2022-08-19T04:26:48;15.50;99.90
11067;DHT22;29763;50.904;5.530;2022-08-19T04:29:21;15.50;99.90
11067;DHT22;29763;50.904;5.530;2022-08-19T04:31:50;15.50;99.90
11067;DHT22;29763;50.904;5.530;2022-08-19T04:34:18;15.40;99.90
11067;DHT22;29763;50.904;5.530;2022-08-19T04:36:45;15.40;99.90
11067;DHT22;29763;50.904;5.530;2022-08-19T04:39:14;15.40;99.90
11067;DHT22;29763;50.904;5.530;2022-08-19T04:41:40;15.40;99.90
11067;DHT22;29763;50.904;5.530;2022-08-19T04:44:25;15.50;99.90
11067;DHT22;29763;50.904;5.530;2022-08-19T04:46:51;15.50;99.90
11067;DHT22;29763;50.904;5.530;2022-08-19T04:49:19;15.50;99.90
11067;DHT22;29763;50.904;5.530;2022-08-19T04:51:47;15.50;99.90
11067;DHT22;29763;50.904;5.530;2022-08-19T04:54:14;15.40;99.90
11067;DHT22;29763;50.904;5.530;2022-08-19T04:56:40;15.50;99.90
11067;DHT22;29763;50.904;5.530;2022-08-19T04:59:06;15.50;99.90
11067;DHT22;29763;50.904;5.530;2022-08-19T05:01:34;15.50;99.90
11067;DHT22;29763;50.904;5.530;2022-08-19T05:04:04;15.50;99.90
11067;DHT22;29763;50.904;5.530;2022-08-19T05:06:31;15.50;99.90
11067;DHT22;29763;50.904;5.530;2022-08-19T05:08:59;15.50;99.90
11067;DHT22;29763;50.904;5.530;2022-08-19T05:11:28;15.50;99.90
11067;DHT22;29763;50.904;5.530;2022-08-19T05:13:55;15.50;99.90
11067;DHT22;29763;50.904;5.530;2022-08-19T05:16:25;15.50;99.90
11067;DHT22;29763;50.904;5.530;2022-08-19T05:18:51;15.50;99.90
11067;DHT22;29763;50.904;5.530;2022-08-19T05:21:36;15.50;99.90
11067;DHT22;29763;50.904;5.530;2022-08-19T05:24:22;15.50;99.90
11067;DHT22;29763;50.904;5.530;2022-08-19T05:26:50;15.50;99.90
11067;DHT22;29763;50.904;5.530;2022-08-19T05:29:18;15.60;99.90
11067;DHT22;29763;50.904;5.530;2022-08-19T05:31:45;15.60;99.90
11067;DHT22;29763;50.904;5.530;2022-08-19T05:34:12;15.70;99.90
11067;DHT22;29763;50.904;5.530;2022-08-19T05:36:43;15.70;99.90
11067;DHT22;29763;50.904;5.530;2022-08-19T05:39:13;15.80;99.90
11067;DHT22;29763;50.904;5.530;2022-08-19T05:41:47;15.90;99.90
11067;DHT22;29763;50.904;5.530;2022-08-19T05:44:14;16.00;99.90
11067;DHT22;29763;50.904;5.530;2022-08-19T05:46:43;16.10;99.90
11067;DHT22;29763;50.904;5.530;2022-08-19T05:49:09;16.20;99.90
11067;DHT22;29763;50.904;5.530;2022-08-19T05:51:36;16.30;99.90
11067;DHT22;29763;50.904;5.530;2022-08-19T05:54:04;16.40;99.90
11067;DHT22;29763;50.904;5.530;2022-08-19T05:56:30;16.50;99.90
11067;DHT22;29763;50.904;5.530;2022-08-19T05:58:57;16.60;99.90
11067;DHT22;29763;50.904;5.530;2022-08-19T06:01:24;16.80;99.90
11067;DHT22;29763;50.904;5.530;2022-08-19T06:03:50;16.90;99.90
11067;DHT22;29763;50.904;5.530;2022-08-19T06:06:17;17.20;99.90
11067;DHT22;29763;50.904;5.530;2022-08-19T06:08:43;17.30;99.90
11067;DHT22;29763;50.904;5.530;2022-08-19T06:11:15;17.60;99.90
11067;DHT22;29763;50.904;5.530;2022-08-19T06:13:41;17.80;99.90
11067;DHT22;29763;50.904;5.530;2022-08-19T06:16:07;18.00;99.90
11067;DHT22;29763;50.904;5.530;2022-08-19T06:18:32;18.20;99.90
11067;DHT22;29763;50.904;5.530;2022-08-19T06:20:58;18.40;99.90
11067;DHT22;29763;50.904;5.530;2022-08-19T06:23:24;18.50;99.90
11067;DHT22;29763;50.904;5.530;2022-08-19T06:25:51;18.60;99.90
11067;DHT22;29763;50.904;5.530;2022-08-19T06:28:16;18.60;99.90
11067;DHT22;29763;50.904;5.530;2022-08-19T06:30:42;18.70;99.90
11067;DHT22;29763;50.904;5.530;2022-08-19T06:33:08;18.80;99.90
11067;DHT22;29763;50.904;5.530;2022-08-19T06:35:39;18.80;99.90
11067;DHT22;29763;50.904;5.530;2022-08-19T06:38:05;18.80;99.90
11067;DHT22;29763;50.904;5.530;2022-08-19T06:40:31;18.70;99.90
11067;DHT22;29763;50.904;5.530;2022-08-19T06:42:56;18.70;99.90
11067;DHT22;29763;50.904;5.530;2022-08-19T06:45:25;18.50;99.90
11067;DHT22;29763;50.904;5.530;2022-08-19T06:47:52;18.50;99.90
11067;DHT22;29763;50.904;5.530;2022-08-19T06:50:24;18.40;99.90
11067;DHT22;29763;50.904;5.530;2022-08-19T06:52:49;18.50;99.90
11067;DHT22;29763;50.904;5.530;2022-08-19T06:55:15;18.70;99.90
11067;DHT22;29763;50.904;5.530;2022-08-19T06:57:41;18.70;99.90
11067;DHT22;29763;50.904;5.530;2022-08-19T07:00:08;18.70;99.90
11067;DHT22;29763;50.904;5.530;2022-08-19T07:02:40;18.80;99.90
11067;DHT22;29763;50.904;5.530;2022-08-19T07:05:06;18.90;99.90
11067;DHT22;29763;50.904;5.530;2022-08-19T07:07:32;19.10;99.90
11067;DHT22;29763;50.904;5.530;2022-08-19T07:09:58;19.20;99.90
11067;DHT22;29763;50.904;5.530;2022-08-19T07:12:24;19.40;99.90
11067;DHT22;29763;50.904;5.530;2022-08-19T07:14:50;19.30;99.90
11067;DHT22;29763;50.904;5.530;2022-08-19T07:17:17;19.20;99.90
11067;DHT22;29763;50.904;5.530;2022-08-19T07:19:43;19.20;99.90
11067;DHT22;29763;50.904;5.530;2022-08-19T07:22:10;19.30;99.90
11067;DHT22;29763;50.904;5.530;2022-08-19T07:24:36;19.50;99.90
11067;DHT22;29763;50.904;5.530;2022-08-19T07:27:04;19.50;99.90
11067;DHT22;29763;50.904;5.530;2022-08-19T07:29:31;19.60;99.90
11067;DHT22;29763;50.904;5.530;2022-08-19T07:31:59;19.80;99.90
11067;DHT22;29763;50.904;5.530;2022-08-19T07:34:27;20.00;99.90
11067;DHT22;29763;50.904;5.530;2022-08-19T07:36:54;20.10;99.90
11067;DHT22;29763;50.904;5.530;2022-08-19T07:39:25;20.20;99.90
11067;DHT22;29763;50.904;5.530;2022-08-19T07:41:52;20.30;99.90
11067;DHT22;29763;50.904;5.530;2022-08-19T07:44:19;20.30;99.90
11067;DHT22;29763;50.904;5.530;2022-08-19T07:46:48;20.40;99.90
11067;DHT22;29763;50.904;5.530;2022-08-19T07:49:15;20.40;99.90
11067;DHT22;29763;50.904;5.530;2022-08-19T07:51:56;20.50;99.90
11067;DHT22;29763;50.904;5.530;2022-08-19T07:54:25;20.60;99.90
11067;DHT22;29763;50.904;5.530;2022-08-19T07:56:51;20.60;99.90
11067;DHT22;29763;50.904;5.530;2022-08-19T07:59:19;20.90;99.90
11067;DHT22;29763;50.904;5.530;2022-08-19T08:01:52;21.20;99.90
11067;DHT22;29763;50.904;5.530;2022-08-19T08:04:18;21.40;99.90
11067;DHT22;29763;50.904;5.530;2022-08-19T08:10:53;22.40;99.90
11067;DHT22;29763;50.904;5.530;2022-08-19T08:13:19;22.60;99.90
11067;DHT22;29763;50.904;5.530;2022-08-19T08:15:44;22.90;99.90
11067;DHT22;29763;50.904;5.530;2022-08-19T08:18:11;23.10;99.90
11067;DHT22;29763;50.904;5.530;2022-08-19T08:20:37;23.10;99.90
11067;DHT22;29763;50.904;5.530;2022-08-19T08:23:03;23.20;99.90
11067;DHT22;29763;50.904;5.530;2022-08-19T08:25:48;23.20;99.90
11067;DHT22;29763;50.904;5.530;2022-08-19T08:28:16;23.20;99.90
11067;DHT22;29763;50.904;5.530;2022-08-19T08:30:41;23.20;99.90
11067;DHT22;29763;50.904;5.530;2022-08-19T08:33:09;22.90;99.90
11067;DHT22;29763;50.904;5.530;2022-08-19T08:35:36;22.70;99.90
11067;DHT22;29763;50.904;5.530;2022-08-19T08:38:02;22.50;99.90
11067;DHT22;29763;50.904;5.530;2022-08-19T08:43:09;22.30;99.90
11067;DHT22;29763;50.904;5.530;2022-08-19T08:45:42;22.30;99.90
11067;DHT22;29763;50.904;5.530;2022-08-19T08:51:34;22.30;99.90
11067;DHT22;29763;50.904;5.530;2022-08-19T08:54:02;22.40;99.90
11067;DHT22;29763;50.904;5.530;2022-08-19T08:56:32;22.70;99.90
11067;DHT22;29763;50.904;5.530;2022-08-19T08:59:05;23.00;99.90
11067;DHT22;29763;50.904;5.530;2022-08-19T09:01:38;23.10;99.90
11067;DHT22;29763;50.904;5.530;2022-08-19T09:04:06;23.30;99.90
11067;DHT22;29763;50.904;5.530;2022-08-19T09:09:33;23.50;99.90
11067;DHT22;29763;50.904;5.530;2022-08-19T09:15:10;23.60;99.90
11067;DHT22;29763;50.904;5.530;2022-08-19T09:17:37;23.70;99.90
11067;DHT22;29763;50.904;5.530;2022-08-19T09:20:08;23.60;99.90
11067;DHT22;29763;50.904;5.530;2022-08-19T09:22:40;23.50;99.90
11067;DHT22;29763;50.904;5.530;2022-08-19T09:25:10;23.30;99.90
11067;DHT22;29763;50.904;5.530;2022-08-19T09:27:38;23.30;99.90
11067;DHT22;29763;50.904;5.530;2022-08-19T09:30:06;23.70;99.90
11067;DHT22;29763;50.904;5.530;2022-08-19T09:32:33;24.30;99.90
11067;DHT22;29763;50.904;5.530;2022-08-19T09:34:59;24.30;99.90
11067;DHT22;29763;50.904;5.530;2022-08-19T09:37:26;24.30;99.90
11067;DHT22;29763;50.904;5.530;2022-08-19T09:39:52;24.80;99.90
11067;DHT22;29763;50.904;5.530;2022-08-19T09:42:18;25.60;99.90
11067;DHT22;29763;50.904;5.530;2022-08-19T09:44:44;26.30;99.90
11067;DHT22;29763;50.904;5.530;2022-08-19T09:47:11;27.10;99.90
11067;DHT22;29763;50.904;5.530;2022-08-19T09:49:38;27.90;99.90
11067;DHT22;29763;50.904;5.530;2022-08-19T09:52:06;28.60;99.90
11067;DHT22;29763;50.904;5.530;2022-08-19T09:54:33;29.20;99.90
11067;DHT22;29763;50.904;5.530;2022-08-19T09:56:59;29.80;99.90
11067;DHT22;29763;50.904;5.530;2022-08-19T09:59:28;29.80;99.90
11067;DHT22;29763;50.904;5.530;2022-08-19T10:01:57;29.60;99.90
11067;DHT22;29763;50.904;5.530;2022-08-19T10:04:23;29.30;99.90
11067;DHT22;29763;50.904;5.530;2022-08-19T10:07:09;28.70;99.90
11067;DHT22;29763;50.904;5.530;2022-08-19T10:09:34;28.40;99.90
11067;DHT22;29763;50.904;5.530;2022-08-19T10:12:01;28.50;99.90
11067;DHT22;29763;50.904;5.530;2022-08-19T10:14:27;28.70;99.90
11067;DHT22;29763;50.904;5.530;2022-08-19T10:16:53;29.10;99.90
11067;DHT22;29763;50.904;5.530;2022-08-19T10:19:19;29.70;99.90
11067;DHT22;29763;50.904;5.530;2022-08-19T10:21:48;30.00;99.90
11067;DHT22;29763;50.904;5.530;2022-08-19T10:24:13;29.90;99.90
11067;DHT22;29763;50.904;5.530;2022-08-19T10:26:40;29.40;99.90
11067;DHT22;29763;50.904;5.530;2022-08-19T10:29:11;28.30;99.90
11067;DHT22;29763;50.904;5.530;2022-08-19T10:31:37;27.40;99.90
11067;DHT22;29763;50.904;5.530;2022-08-19T10:34:03;27.30;99.90
11067;DHT22;29763;50.904;5.530;2022-08-19T10:36:35;28.00;99.90
11067;DHT22;29763;50.904;5.530;2022-08-19T10:39:04;28.90;99.90
11067;DHT22;29763;50.904;5.530;2022-08-19T10:41:32;29.60;99.90
11067;DHT22;29763;50.904;5.530;2022-08-19T10:44:04;30.50;99.90
11067;DHT22;29763;50.904;5.530;2022-08-19T10:46:31;30.80;99.90
11067;DHT22;29763;50.904;5.530;2022-08-19T10:48:59;30.40;99.90
11067;DHT22;29763;50.904;5.530;2022-08-19T10:51:26;29.90;99.90
11067;DHT22;29763;50.904;5.530;2022-08-19T10:54:11;29.10;99.90
11067;DHT22;29763;50.904;5.530;2022-08-19T10:56:37;28.90;99.90
11067;DHT22;29763;50.904;5.530;2022-08-19T10:59:26;28.80;99.90
11067;DHT22;29763;50.904;5.530;2022-08-19T11:01:58;29.30;99.90
11067;DHT22;29763;50.904;5.530;2022-08-19T11:04:24;29.50;99.90
11067;DHT22;29763;50.904;5.530;2022-08-19T11:06:50;29.80;99.90
11067;DHT22;29763;50.904;5.530;2022-08-19T11:09:19;29.50;99.90
11067;DHT22;29763;50.904;5.530;2022-08-19T11:11:46;29.40;99.90
11067;DHT22;29763;50.904;5.530;2022-08-19T11:14:15;29.50;99.90
11067;DHT22;29763;50.904;5.530;2022-08-19T11:16:41;29.70;99.90
11067;DHT22;29763;50.904;5.530;2022-08-19T11:19:09;30.00;99.90
11067;DHT22;29763;50.904;5.530;2022-08-19T11:21:41;29.60;99.90
11067;DHT22;29763;50.904;5.530;2022-08-19T11:24:10;29.10;99.90
11067;DHT22;29763;50.904;5.530;2022-08-19T11:26:37;28.90;99.90
11067;DHT22;29763;50.904;5.530;2022-08-19T11:29:04;29.00;99.90
11067;DHT22;29763;50.904;5.530;2022-08-19T11:31:33;29.10;99.90
11067;DHT22;29763;50.904;5.530;2022-08-19T11:34:01;28.90;99.90
11067;DHT22;29763;50.904;5.530;2022-08-19T11:36:29;29.10;99.90
11067;DHT22;29763;50.904;5.530;2022-08-19T11:38:55;29.20;99.90
11067;DHT22;29763;50.904;5.530;2022-08-19T11:41:22;29.40;99.90
11067;DHT22;29763;50.904;5.530;2022-08-19T11:43:52;28.90;99.90
11067;DHT22;29763;50.904;5.530;2022-08-19T11:46:21;29.10;99.90
11067;DHT22;29763;50.904;5.530;2022-08-19T11:48:48;29.50;99.90
11067;DHT22;29763;50.904;5.530;2022-08-19T11:51:17;29.70;99.90
11067;DHT22;29763;50.904;5.530;2022-08-19T11:53:44;29.50;99.90
11067;DHT22;29763;50.904;5.530;2022-08-19T11:56:11;29.10;99.90
11067;DHT22;29763;50.904;5.530;2022-08-19T11:58:38;29.10;99.90
11067;DHT22;29763;50.904;5.530;2022-08-19T12:01:16;29.00;99.90
11067;DHT22;29763;50.904;5.530;2022-08-19T12:03:43;29.20;99.90
11067;DHT22;29763;50.904;5.530;2022-08-19T12:06:12;29.60;99.90
11067;DHT22;29763;50.904;5.530;2022-08-19T12:08:39;29.70;99.90
11067;DHT22;29763;50.904;5.530;2022-08-19T12:11:05;30.20;99.90
11067;DHT22;29763;50.904;5.530;2022-08-19T12:13:34;30.50;99.90
11067;DHT22;29763;50.904;5.530;2022-08-19T12:16:00;30.80;99.90
11067;DHT22;29763;50.904;5.530;2022-08-19T12:18:32;31.10;99.90
11067;DHT22;29763;50.904;5.530;2022-08-19T12:20:57;31.10;99.90
11067;DHT22;29763;50.904;5.530;2022-08-19T12:23:26;31.00;99.90
11067;DHT22;29763;50.904;5.530;2022-08-19T12:25:55;31.20;99.90
11067;DHT22;29763;50.904;5.530;2022-08-19T12:28:24;31.40;99.90
11067;DHT22;29763;50.904;5.530;2022-08-19T12:30:50;31.60;99.90
11067;DHT22;29763;50.904;5.530;2022-08-19T12:33:17;32.00;99.90
11067;DHT22;29763;50.904;5.530;2022-08-19T12:35:46;31.90;99.90
11067;DHT22;29763;50.904;5.530;2022-08-19T12:38:13;31.30;99.90
11067;DHT22;29763;50.904;5.530;2022-08-19T12:40:40;30.80;99.90
11067;DHT22;29763;50.904;5.530;2022-08-19T12:43:06;30.60;99.90
11067;DHT22;29763;50.904;5.530;2022-08-19T12:45:32;30.40;99.90
11067;DHT22;29763;50.904;5.530;2022-08-19T12:47:58;30.10;99.90
11067;DHT22;29763;50.904;5.530;2022-08-19T12:50:24;30.30;99.90
11067;DHT22;29763;50.904;5.530;2022-08-19T12:52:50;30.30;99.90
11067;DHT22;29763;50.904;5.530;2022-08-19T12:55:17;30.00;99.90
11067;DHT22;29763;50.904;5.530;2022-08-19T12:57:44;29.80;99.90
11067;DHT22;29763;50.904;5.530;2022-08-19T13:00:14;29.70;99.90
11067;DHT22;29763;50.904;5.530;2022-08-19T13:02:42;29.30;99.90
11067;DHT22;29763;50.904;5.530;2022-08-19T13:05:16;29.00;99.90
11067;DHT22;29763;50.904;5.530;2022-08-19T13:07:42;29.00;99.90
11067;DHT22;29763;50.904;5.530;2022-08-19T13:10:11;28.80;99.90
11067;DHT22;29763;50.904;5.530;2022-08-19T13:12:38;28.30;99.90
11067;DHT22;29763;50.904;5.530;2022-08-19T13:15:05;27.60;99.90
11067;DHT22;29763;50.904;5.530;2022-08-19T13:17:30;27.20;99.90
11067;DHT22;29763;50.904;5.530;2022-08-19T13:19:58;26.90;99.90
11067;DHT22;29763;50.904;5.530;2022-08-19T13:22:24;26.70;99.90
11067;DHT22;29763;50.904;5.530;2022-08-19T13:24:50;26.60;99.90
11067;DHT22;29763;50.904;5.530;2022-08-19T13:27:16;26.40;99.90
11067;DHT22;29763;50.904;5.530;2022-08-19T13:29:42;26.30;99.90
11067;DHT22;29763;50.904;5.530;2022-08-19T13:32:26;26.10;99.90
11067;DHT22;29763;50.904;5.530;2022-08-19T13:35:10;26.10;99.90
11067;DHT22;29763;50.904;5.530;2022-08-19T13:37:37;25.90;99.90
11067;DHT22;29763;50.904;5.530;2022-08-19T13:40:12;26.00;99.90
11067;DHT22;29763;50.904;5.530;2022-08-19T13:42:48;25.90;99.90
11067;DHT22;29763;50.904;5.530;2022-08-19T13:45:16;25.80;99.90
11067;DHT22;29763;50.904;5.530;2022-08-19T13:47:49;25.90;99.90
11067;DHT22;29763;50.904;5.530;2022-08-19T13:50:21;26.10;99.90
11067;DHT22;29763;50.904;5.530;2022-08-19T13:52:47;26.40;99.90
11067;DHT22;29763;50.904;5.530;2022-08-19T13:55:14;26.70;99.90
11067;DHT22;29763;50.904;5.530;2022-08-19T13:57:41;27.00;99.90
11067;DHT22;29763;50.904;5.530;2022-08-19T14:00:09;27.10;99.90
11067;DHT22;29763;50.904;5.530;2022-08-19T14:02:36;27.00;99.90
11067;DHT22;29763;50.904;5.530;2022-08-19T14:05:05;26.90;99.90
11067;DHT22;29763;50.904;5.530;2022-08-19T14:07:31;26.80;99.90
11067;DHT22;29763;50.904;5.530;2022-08-19T14:09:57;26.80;99.90
11067;DHT22;29763;50.904;5.530;2022-08-19T14:12:23;26.70;99.90
11067;DHT22;29763;50.904;5.530;2022-08-19T14:14:49;26.70;99.90
11067;DHT22;29763;50.904;5.530;2022-08-19T14:17:15;26.80;99.90
11067;DHT22;29763;50.904;5.530;2022-08-19T14:19:41;26.90;99.90
11067;DHT22;29763;50.904;5.530;2022-08-19T14:22:07;27.00;99.90
11067;DHT22;29763;50.904;5.530;2022-08-19T14:24:33;27.20;99.90
11067;DHT22;29763;50.904;5.530;2022-08-19T14:26:59;27.40;99.90
11067;DHT22;29763;50.904;5.530;2022-08-19T14:29:25;27.70;99.90
11067;DHT22;29763;50.904;5.530;2022-08-19T14:31:53;28.00;99.90
11067;DHT22;29763;50.904;5.530;2022-08-19T14:34:18;28.10;99.90
11067;DHT22;29763;50.904;5.530;2022-08-19T14:36:44;28.20;99.90
11067;DHT22;29763;50.904;5.530;2022-08-19T14:39:10;28.20;99.90
11067;DHT22;29763;50.904;5.530;2022-08-19T14:41:40;28.10;99.90
11067;DHT22;29763;50.904;5.530;2022-08-19T14:44:06;28.30;99.90
11067;DHT22;29763;50.904;5.530;2022-08-19T14:46:32;28.40;99.90
11067;DHT22;29763;50.904;5.530;2022-08-19T14:49:00;28.40;99.90
11067;DHT22;29763;50.904;5.530;2022-08-19T14:51:27;28.50;99.90
11067;DHT22;29763;50.904;5.530;2022-08-19T14:53:53;28.70;99.90
11067;DHT22;29763;50.904;5.530;2022-08-19T14:56:22;28.30;99.90
11067;DHT22;29763;50.904;5.530;2022-08-19T14:58:49;28.30;99.90
11067;DHT22;29763;50.904;5.530;2022-08-19T15:01:22;28.30;99.90
11067;DHT22;29763;50.904;5.530;2022-08-19T15:03:48;28.10;99.90
11067;DHT22;29763;50.904;5.530;2022-08-19T15:06:15;28.00;99.90
11067;DHT22;29763;50.904;5.530;2022-08-19T15:08:42;28.20;99.90
11067;DHT22;29763;50.904;5.530;2022-08-19T15:11:16;28.50;99.90
11067;DHT22;29763;50.904;5.530;2022-08-19T15:13:43;29.00;99.90
11067;DHT22;29763;50.904;5.530;2022-08-19T15:16:10;29.40;99.90
11067;DHT22;29763;50.904;5.530;2022-08-19T15:18:36;29.60;99.90
11067;DHT22;29763;50.904;5.530;2022-08-19T15:21:03;29.40;99.90
11067;DHT22;29763;50.904;5.530;2022-08-19T15:23:29;29.00;99.90
11067;DHT22;29763;50.904;5.530;2022-08-19T15:25:55;28.60;99.90
11067;DHT22;29763;50.904;5.530;2022-08-19T15:28:22;28.20;99.90
11067;DHT22;29763;50.904;5.530;2022-08-19T15:30:48;27.80;99.90
11067;DHT22;29763;50.904;5.530;2022-08-19T15:33:15;27.40;99.90
11067;DHT22;29763;50.904;5.530;2022-08-19T15:35:43;27.30;99.90
11067;DHT22;29763;50.904;5.530;2022-08-19T15:38:09;27.50;99.90
11067;DHT22;29763;50.904;5.530;2022-08-19T15:40:38;27.60;99.90
11067;DHT22;29763;50.904;5.530;2022-08-19T15:43:06;27.60;99.90
11067;DHT22;29763;50.904;5.530;2022-08-19T15:45:32;27.60;99.90
11067;DHT22;29763;50.904;5.530;2022-08-19T15:48:01;27.60;99.90
11067;DHT22;29763;50.904;5.530;2022-08-19T15:50:28;27.50;99.90